createdAt,value
2023-03-13T00:01:32.783Z,2.92
2023-03-13T00:04:01.357Z,2.88
2023-03-13T00:06:33.449Z,2.83
2023-03-13T00:09:05.386Z,2.74
2023-03-13T00:11:35.240Z,2.78
2023-03-13T00:14:06.292Z,2.79
2023-03-13T00:16:37.784Z,2.80
2023-03-13T00:19:08.721Z,2.77
2023-03-13T00:21:38.443Z,2.72
2023-03-13T00:24:07.164Z,2.71
2023-03-13T00:26:43.191Z,2.66
2023-03-13T00:29:11.420Z,2.63
2023-03-13T00:31:40.550Z,2.61
2023-03-13T00:34:08.948Z,2.55
2023-03-13T00:36:37.921Z,2.56
2023-03-13T00:39:07.796Z,2.50
2023-03-13T00:41:38.602Z,2.47
2023-03-13T00:44:08.526Z,2.43
2023-03-13T00:46:37.345Z,2.46
2023-03-13T00:49:06.967Z,2.41
2023-03-13T00:51:35.824Z,2.41
2023-03-13T00:54:05.082Z,2.33
2023-03-13T00:56:34.791Z,2.30
2023-03-13T00:59:03.038Z,2.33
2023-03-13T01:01:34.631Z,2.38
2023-03-13T01:04:05.160Z,2.44
2023-03-13T01:06:36.520Z,2.36
2023-03-13T01:09:06.622Z,2.28
2023-03-13T01:11:37.207Z,2.25
2023-03-13T01:14:08.000Z,2.30
2023-03-13T01:16:39.556Z,2.34
2023-03-13T01:19:11.811Z,2.37
2023-03-13T01:21:41.468Z,2.23
2023-03-13T01:24:10.233Z,2.14
2023-03-13T01:26:38.661Z,2.12
2023-03-13T01:29:07.136Z,2.12
2023-03-13T01:31:38.278Z,2.13
2023-03-13T01:34:07.521Z,2.21
2023-03-13T01:36:38.700Z,2.18
2023-03-13T01:39:08.075Z,2.25
2023-03-13T01:41:36.891Z,2.27
2023-03-13T01:44:05.449Z,2.32
2023-03-13T01:46:35.431Z,2.40
2023-03-13T01:49:09.152Z,2.37
2023-03-13T01:51:41.310Z,2.39
2023-03-13T01:54:11.863Z,2.32
2023-03-13T01:56:46.515Z,2.27
2023-03-13T01:59:18.362Z,2.29
2023-03-13T02:01:49.233Z,2.37
2023-03-13T02:04:23.536Z,2.42
2023-03-13T02:06:54.961Z,2.48
2023-03-13T02:09:27.416Z,2.54
2023-03-13T02:12:01.623Z,2.63
2023-03-13T02:14:33.128Z,2.54
2023-03-13T02:17:02.378Z,2.51
2023-03-13T02:19:39.476Z,2.82
2023-03-13T02:22:14.739Z,2.83
2023-03-13T02:24:51.988Z,2.77
2023-03-13T02:27:22.047Z,2.71
2023-03-13T02:29:51.216Z,2.55
2023-03-13T02:32:20.154Z,2.61
2023-03-13T02:34:52.087Z,2.64
2023-03-13T02:37:21.861Z,2.73
2023-03-13T02:39:52.786Z,2.78
2023-03-13T02:42:24.711Z,2.64
2023-03-13T02:44:53.397Z,2.49
2023-03-13T02:47:23.272Z,2.49
2023-03-13T02:49:53.435Z,2.46
2023-03-13T02:52:26.294Z,2.47
2023-03-13T02:54:59.689Z,2.26
2023-03-13T02:57:31.845Z,2.14
2023-03-13T03:00:00.449Z,2.17
2023-03-13T03:02:29.227Z,2.29
2023-03-13T03:04:57.905Z,2.52
2023-03-13T03:07:26.921Z,2.59
2023-03-13T03:09:55.265Z,2.50
2023-03-13T03:12:24.100Z,2.28
2023-03-13T03:14:54.123Z,2.11
2023-03-13T03:17:22.532Z,1.94
2023-03-13T03:19:50.907Z,1.87
2023-03-13T03:22:19.448Z,1.86
2023-03-13T03:24:48.032Z,1.89
2023-03-13T03:27:16.730Z,1.87
2023-03-13T03:29:45.191Z,1.77
2023-03-13T03:32:14.998Z,1.70
2023-03-13T03:34:43.956Z,1.73
2023-03-13T03:37:12.458Z,1.98
2023-03-13T03:39:41.474Z,2.08
2023-03-13T03:42:10.604Z,2.17
2023-03-13T03:44:39.118Z,2.18
2023-03-13T03:47:07.961Z,2.26
2023-03-13T03:49:37.701Z,2.27
2023-03-13T03:52:07.203Z,2.09
2023-03-13T03:54:35.483Z,2.05
2023-03-13T03:57:04.247Z,1.99
2023-03-13T03:59:32.792Z,2.05
2023-03-13T04:02:01.667Z,1.88
2023-03-13T04:04:30.654Z,1.85
2023-03-13T04:07:00.564Z,2.03
2023-03-13T04:09:31.027Z,1.94
2023-03-13T04:12:00.272Z,1.79
2023-03-13T04:14:28.628Z,1.73
2023-03-13T04:16:56.956Z,1.77
2023-03-13T04:19:25.395Z,1.79
2023-03-13T04:21:53.804Z,1.74
2023-03-13T04:24:23.601Z,1.73
2023-03-13T04:26:51.935Z,1.68
2023-03-13T04:29:20.177Z,1.59
2023-03-13T04:31:48.446Z,1.46
2023-03-13T04:34:16.884Z,1.41
2023-03-13T04:36:45.214Z,1.49
2023-03-13T04:39:14.032Z,1.51
2023-03-13T04:41:43.970Z,1.51
2023-03-13T04:44:12.244Z,1.50
2023-03-13T04:46:40.611Z,1.56
2023-03-13T04:49:09.464Z,1.71
2023-03-13T04:51:37.975Z,1.89
2023-03-13T04:54:06.597Z,2.04
2023-03-13T04:56:43.273Z,2.08
2023-03-13T04:59:15.590Z,2.08
2023-03-13T05:01:44.722Z,2.16
2023-03-13T05:04:13.322Z,2.46
2023-03-13T05:06:41.835Z,2.92
2023-03-13T05:09:10.191Z,3.18
2023-03-13T05:11:40.361Z,3.59
2023-03-13T05:14:10.928Z,4.14
2023-03-13T05:16:41.101Z,5.08
2023-03-13T05:19:09.792Z,5.08
2023-03-13T05:21:38.284Z,4.85
2023-03-13T05:24:07.122Z,4.73
2023-03-13T05:26:35.708Z,4.86
2023-03-13T05:29:03.943Z,4.91
2023-03-13T05:31:32.349Z,4.92
2023-03-13T05:34:02.581Z,4.84
2023-03-13T05:36:31.068Z,4.91
2023-03-13T05:38:59.580Z,5.00
2023-03-13T05:41:27.899Z,5.07
2023-03-13T05:43:56.309Z,5.39
2023-03-13T05:46:25.150Z,6.29
2023-03-13T05:48:54.065Z,7.27
2023-03-13T05:51:24.138Z,7.86
2023-03-13T05:53:52.560Z,8.12
2023-03-13T05:56:20.894Z,8.49
2023-03-13T05:58:49.168Z,7.98
2023-03-13T06:01:17.577Z,9.22
2023-03-13T06:03:46.231Z,9.32
2023-03-13T06:06:14.595Z,8.66
2023-03-13T06:08:45.472Z,9.15
2023-03-13T06:11:14.002Z,9.52
2023-03-13T06:13:42.285Z,10.73
2023-03-13T06:16:11.134Z,10.84
2023-03-13T06:18:39.485Z,10.59
2023-03-13T06:21:07.788Z,10.55
2023-03-13T06:23:37.213Z,10.28
2023-03-13T06:26:07.144Z,11.26
2023-03-13T06:28:35.474Z,11.73
2023-03-13T06:31:04.721Z,10.77
2023-03-13T06:33:33.327Z,11.41
2023-03-13T06:36:03.421Z,10.37
2023-03-13T06:38:32.426Z,10.58
2023-03-13T06:41:00.785Z,10.37
2023-03-13T06:43:31.521Z,10.31
2023-03-13T06:46:05.528Z,10.25
2023-03-13T06:48:34.088Z,9.79
2023-03-13T06:51:02.366Z,10.38
2023-03-13T06:53:30.759Z,9.64
2023-03-13T06:56:02.570Z,9.26
2023-03-13T06:58:33.125Z,8.94
2023-03-13T07:01:02.196Z,8.56
2023-03-13T07:03:30.910Z,8.03
2023-03-13T07:06:00.142Z,7.51
2023-03-13T07:08:28.943Z,7.48
2023-03-13T07:11:01.407Z,7.32
2023-03-13T07:13:30.158Z,7.45
2023-03-13T07:16:04.706Z,7.35
2023-03-13T07:18:35.161Z,7.20
2023-03-13T07:21:07.758Z,7.20
2023-03-13T07:23:37.283Z,7.14
2023-03-13T07:26:08.477Z,7.15
2023-03-13T07:28:37.972Z,7.09
2023-03-13T07:31:12.148Z,7.06
2023-03-13T07:33:40.740Z,6.95
2023-03-13T07:36:10.572Z,6.97
2023-03-13T07:38:39.699Z,6.98
2023-03-13T07:41:10.002Z,7.17
2023-03-13T07:43:40.383Z,7.21
2023-03-13T07:46:13.272Z,7.38
2023-03-13T07:48:44.256Z,7.39
2023-03-13T07:51:15.388Z,7.26
2023-03-13T07:53:43.954Z,7.48
2023-03-13T07:56:14.680Z,7.44
2023-03-13T07:58:43.898Z,7.31
2023-03-13T08:01:16.210Z,7.45
2023-03-13T08:03:45.455Z,7.59
2023-03-13T08:06:16.689Z,7.34
2023-03-13T08:08:45.336Z,7.07
2023-03-13T08:11:15.401Z,7.31
2023-03-13T08:13:44.165Z,7.36
2023-03-13T08:16:15.893Z,7.38
2023-03-13T08:18:45.853Z,7.49
2023-03-13T08:21:16.130Z,7.87
2023-03-13T08:23:44.780Z,7.78
2023-03-13T08:26:14.787Z,7.61
2023-03-13T08:28:43.600Z,7.73
2023-03-13T08:31:15.285Z,7.78
2023-03-13T08:33:45.194Z,7.92
2023-03-13T08:36:14.682Z,7.67
2023-03-13T08:38:45.931Z,7.39
2023-03-13T08:41:16.953Z,7.50
2023-03-13T08:43:45.304Z,7.39
2023-03-13T08:46:17.821Z,7.66
2023-03-13T08:48:51.775Z,7.82
2023-03-13T08:51:30.976Z,7.72
2023-03-13T08:53:59.538Z,7.68
2023-03-13T08:56:30.566Z,7.62
2023-03-13T08:59:00.102Z,7.86
2023-03-13T09:01:31.433Z,8.15
2023-03-13T09:04:03.412Z,8.11
2023-03-13T09:06:32.709Z,8.11
2023-03-13T09:09:03.971Z,7.92
2023-03-13T09:11:32.508Z,7.81
2023-03-13T09:14:00.913Z,7.70
2023-03-13T09:16:33.109Z,7.77
2023-03-13T09:19:01.995Z,7.78
2023-03-13T09:21:32.121Z,8.13
2023-03-13T09:24:02.277Z,8.19
2023-03-13T09:26:30.839Z,7.97
2023-03-13T09:28:59.463Z,7.70
2023-03-13T09:31:30.011Z,7.97
2023-03-13T09:34:00.608Z,8.28
2023-03-13T09:36:29.848Z,8.49
2023-03-13T09:39:00.630Z,8.42
2023-03-13T09:41:35.356Z,8.12
2023-03-13T09:44:08.986Z,8.37
2023-03-13T09:46:42.741Z,8.28
2023-03-13T09:49:23.904Z,7.84
2023-03-13T09:51:57.874Z,7.68
2023-03-13T09:54:29.888Z,7.85
2023-03-13T09:57:00.391Z,7.78
2023-03-13T09:59:37.505Z,8.10
2023-03-13T10:02:16.111Z,8.03
2023-03-13T10:04:49.561Z,8.26
2023-03-13T10:07:17.920Z,8.29
2023-03-13T10:09:46.358Z,8.36
2023-03-13T10:12:20.908Z,7.96
2023-03-13T10:15:00.936Z,7.61
2023-03-13T10:20:25.086Z,7.50
2023-03-13T10:22:55.972Z,7.89
2023-03-13T10:25:33.867Z,7.76
2023-03-13T10:28:02.626Z,7.93
2023-03-13T10:30:32.872Z,7.91
2023-03-13T10:33:02.376Z,8.10
2023-03-13T10:35:37.052Z,8.19
2023-03-13T10:38:10.464Z,8.32
2023-03-13T10:40:39.416Z,7.87
2023-03-13T10:43:14.343Z,7.87
2023-03-13T10:45:42.768Z,8.19
2023-03-13T10:48:16.611Z,8.14
2023-03-13T10:50:48.277Z,8.11
2023-03-13T10:53:28.869Z,8.16
2023-03-13T10:55:59.288Z,8.21
2023-03-13T10:58:34.829Z,8.03
2023-03-13T11:01:18.930Z,8.10
2023-03-13T11:03:48.547Z,8.02
2023-03-13T11:06:31.470Z,8.23
2023-03-13T11:09:13.433Z,8.30
2023-03-13T11:11:50.446Z,8.31
2023-03-13T11:14:20.525Z,8.20
2023-03-13T11:16:51.276Z,7.93
2023-03-13T11:19:34.544Z,8.14
2023-03-13T11:22:16.534Z,8.40
2023-03-13T11:24:51.060Z,8.10
2023-03-13T11:27:28.916Z,8.11
2023-03-13T11:30:09.412Z,7.89
2023-03-13T11:32:44.782Z,7.93
2023-03-13T11:35:27.628Z,7.84
2023-03-13T11:37:58.795Z,7.68
2023-03-13T11:40:33.671Z,7.81
2023-03-13T11:43:24.550Z,7.24
2023-03-13T11:46:20.005Z,7.57
2023-03-13T11:49:13.428Z,7.20
2023-03-13T11:51:56.133Z,7.43
2023-03-13T11:54:51.182Z,7.33
2023-03-13T11:57:29.823Z,7.65
2023-03-13T12:00:30.749Z,7.67
2023-03-13T12:03:07.677Z,7.71
2023-03-13T12:05:46.902Z,7.58
2023-03-13T12:08:21.198Z,7.62
2023-03-13T12:10:57.723Z,7.35
2023-03-13T12:13:33.306Z,7.68
2023-03-13T12:16:08.129Z,7.74
2023-03-13T12:18:39.798Z,7.65
2023-03-13T12:21:19.608Z,7.48
2023-03-13T12:23:55.375Z,7.63
2023-03-13T12:26:36.091Z,7.64
2023-03-13T12:29:16.705Z,7.34
2023-03-13T12:31:51.448Z,7.57
2023-03-13T12:34:29.366Z,7.41
2023-03-13T12:37:14.773Z,7.41
2023-03-13T12:39:50.364Z,7.36
2023-03-13T12:42:31.511Z,7.28
2023-03-13T12:45:01.746Z,7.44
2023-03-13T12:47:34.886Z,7.40
2023-03-13T12:50:25.949Z,7.28
2023-03-13T12:53:21.759Z,7.36
2023-03-13T12:56:16.836Z,7.23
2023-03-13T12:58:51.601Z,7.37
2023-03-13T13:01:33.753Z,7.50
2023-03-13T13:04:07.241Z,7.20
2023-03-13T13:06:57.644Z,7.22
2023-03-13T13:09:28.219Z,7.23
2023-03-13T13:11:59.602Z,7.17
2023-03-13T13:15:04.086Z,7.41
2023-03-13T13:18:01.967Z,7.42
2023-03-13T13:20:40.421Z,7.09
2023-03-13T13:23:37.077Z,7.24
2023-03-13T13:26:48.484Z,7.13
2023-03-13T13:29:56.757Z,7.16
2023-03-13T13:32:45.278Z,7.14
2023-03-13T13:35:29.499Z,7.16
2023-03-13T13:38:37.146Z,7.32
2023-03-13T13:41:25.920Z,7.32
2023-03-13T13:44:24.535Z,7.35
2023-03-13T13:46:56.244Z,7.32
2023-03-13T13:49:32.815Z,7.10
2023-03-13T13:52:36.269Z,7.03
2023-03-13T13:55:31.157Z,7.08
2023-03-13T13:58:05.129Z,7.23
2023-03-13T14:00:44.345Z,7.04
2023-03-13T14:03:25.229Z,6.97
2023-03-13T14:06:05.545Z,6.93
2023-03-13T14:08:39.929Z,7.02
2023-03-13T14:11:29.048Z,6.97
2023-03-13T14:14:19.174Z,6.86
2023-03-13T14:16:52.824Z,6.84
2023-03-13T14:19:31.609Z,6.77
2023-03-13T14:22:09.377Z,6.74
2023-03-13T14:24:39.166Z,6.67
2023-03-13T14:27:17.974Z,6.60
2023-03-13T14:30:02.930Z,6.73
2023-03-13T14:32:31.868Z,6.77
2023-03-13T14:35:01.004Z,6.84
2023-03-13T14:37:39.873Z,6.83
2023-03-13T14:40:11.278Z,6.76
2023-03-13T14:42:43.497Z,6.85
2023-03-13T14:45:17.294Z,6.86
2023-03-13T14:47:46.459Z,6.77
2023-03-13T14:50:19.780Z,6.80
2023-03-13T14:52:53.957Z,6.61
2023-03-13T14:55:35.017Z,6.46
2023-03-13T14:58:07.467Z,6.49
2023-03-13T15:00:41.724Z,6.55
2023-03-13T15:03:36.883Z,6.59
2023-03-13T15:06:08.567Z,6.57
2023-03-13T15:08:43.206Z,6.54
2023-03-13T15:11:42.280Z,6.41
2023-03-13T15:14:39.662Z,6.25
2023-03-13T15:17:19.361Z,6.24
2023-03-13T15:19:56.912Z,6.25
2023-03-13T15:22:30.838Z,6.26
2023-03-13T15:25:08.369Z,6.27
2023-03-13T15:27:40.455Z,6.24
2023-03-13T15:30:09.916Z,6.12
2023-03-13T15:32:42.665Z,6.02
2023-03-13T15:35:24.564Z,5.99
2023-03-13T15:37:53.425Z,5.95
2023-03-13T15:40:26.835Z,5.90
2023-03-13T15:42:56.652Z,5.90
2023-03-13T15:45:25.778Z,5.77
2023-03-13T15:47:54.929Z,5.71
2023-03-13T15:50:29.770Z,5.65
2023-03-13T15:53:00.916Z,5.63
2023-03-13T15:55:31.534Z,5.54
2023-03-13T15:58:02.560Z,5.54
2023-03-13T16:00:31.245Z,5.46
2023-03-13T16:03:03.105Z,5.39
2023-03-13T16:05:32.121Z,5.32
2023-03-13T16:08:00.662Z,5.23
2023-03-13T16:10:33.774Z,5.17
2023-03-13T16:13:03.789Z,5.08
2023-03-13T16:15:33.116Z,5.03
2023-03-13T16:18:05.199Z,4.98
2023-03-13T16:20:35.957Z,4.98
2023-03-13T16:23:07.622Z,4.92
2023-03-13T16:25:39.082Z,4.83
2023-03-13T16:28:09.466Z,4.77
2023-03-13T16:30:38.432Z,4.81
2023-03-13T16:33:07.555Z,4.75
2023-03-13T16:35:36.324Z,4.67
2023-03-13T16:38:05.853Z,4.65
2023-03-13T16:40:35.515Z,4.64
2023-03-13T16:43:05.977Z,4.64
2023-03-13T16:45:41.739Z,4.58
2023-03-13T16:48:20.090Z,4.50
2023-03-13T16:50:49.375Z,4.52
2023-03-13T16:53:18.194Z,4.54
2023-03-13T16:55:48.077Z,4.52
2023-03-13T16:58:21.806Z,4.49
2023-03-13T17:01:04.661Z,4.49
2023-03-13T17:03:34.964Z,4.42
2023-03-13T17:06:03.715Z,4.39
2023-03-13T17:08:32.364Z,4.38
2023-03-13T17:11:01.262Z,4.31
2023-03-13T17:13:31.118Z,4.35
2023-03-13T17:16:01.223Z,4.40
2023-03-13T17:18:31.147Z,4.43
2023-03-13T17:21:01.038Z,4.34
2023-03-13T17:23:31.148Z,4.35
2023-03-13T17:26:00.542Z,4.31
2023-03-13T17:28:32.095Z,4.31
2023-03-13T17:31:02.213Z,4.17
2023-03-13T17:33:30.876Z,4.08
2023-03-13T17:35:59.621Z,4.12
2023-03-13T17:38:28.445Z,4.12
2023-03-13T17:40:57.198Z,4.07
2023-03-13T17:43:25.997Z,4.03
2023-03-13T17:45:57.154Z,3.97
2023-03-13T17:48:27.908Z,3.92
2023-03-13T17:50:56.607Z,3.89
2023-03-13T17:53:25.169Z,3.97
2023-03-13T17:55:55.739Z,3.96
2023-03-13T17:58:24.589Z,3.86
2023-03-13T18:01:00.325Z,3.81
2023-03-13T18:03:30.045Z,3.93
2023-03-13T18:05:59.942Z,3.94
2023-03-13T18:08:29.566Z,3.99
2023-03-13T18:10:58.285Z,3.95
2023-03-13T18:13:27.313Z,3.86
2023-03-13T18:15:57.280Z,3.81
2023-03-13T18:18:26.289Z,3.75
2023-03-13T18:20:56.469Z,3.72
2023-03-13T18:23:29.971Z,3.69
2023-03-13T18:25:58.534Z,3.64
2023-03-13T18:28:27.080Z,3.62
2023-03-13T18:30:57.103Z,3.59
2023-03-13T18:33:25.634Z,3.62
2023-03-13T18:35:55.496Z,3.65
2023-03-13T18:38:24.469Z,3.65
2023-03-13T18:40:53.145Z,3.60
2023-03-13T18:43:21.914Z,3.45
2023-03-13T18:45:50.417Z,3.31
2023-03-13T18:48:20.424Z,3.28
2023-03-13T18:50:49.275Z,3.33
2023-03-13T18:53:18.281Z,3.36
2023-03-13T18:55:47.083Z,3.42
2023-03-13T18:58:15.483Z,3.34
2023-03-13T19:00:44.973Z,3.33
2023-03-13T19:03:13.684Z,3.31
2023-03-13T19:05:44.530Z,3.32
2023-03-13T19:08:13.543Z,3.27
2023-03-13T19:10:43.132Z,3.18
2023-03-13T19:13:11.612Z,3.22
2023-03-13T19:15:40.097Z,3.29
2023-03-13T19:18:13.179Z,3.27
2023-03-13T19:20:44.045Z,3.24
2023-03-13T19:23:13.755Z,3.24
2023-03-13T19:25:43.500Z,3.19
2023-03-13T19:28:12.582Z,3.06
2023-03-13T19:30:44.623Z,3.00
2023-03-13T19:33:13.786Z,3.00
2023-03-13T19:35:44.741Z,2.90
2023-03-13T19:38:14.635Z,2.80
2023-03-13T19:40:44.319Z,2.76
2023-03-13T19:43:16.963Z,2.76
2023-03-13T19:45:49.907Z,2.80
2023-03-13T19:48:36.606Z,2.87
2023-03-13T19:51:07.871Z,2.95
2023-03-13T19:53:44.464Z,2.93
2023-03-13T19:56:20.853Z,2.86
2023-03-13T19:58:50.727Z,2.93
2023-03-13T20:01:28.154Z,3.01
2023-03-13T20:04:00.141Z,3.05
2023-03-13T20:06:32.389Z,3.04
2023-03-13T20:09:03.423Z,3.04
2023-03-13T20:11:37.840Z,2.99
2023-03-13T20:14:08.652Z,2.96
2023-03-13T20:16:38.585Z,2.91
2023-03-13T20:19:08.390Z,2.88
2023-03-13T20:21:43.580Z,2.91
2023-03-13T20:24:19.263Z,2.97
2023-03-13T20:26:48.516Z,2.94
2023-03-13T20:29:18.144Z,2.89
2023-03-13T20:31:47.692Z,2.81
2023-03-13T20:34:16.942Z,2.82
2023-03-13T20:36:47.336Z,2.83
2023-03-13T20:39:17.146Z,2.88
2023-03-13T20:41:46.949Z,2.75
2023-03-13T20:44:15.782Z,2.62
2023-03-13T20:46:48.192Z,2.61
2023-03-13T20:49:17.285Z,2.70
2023-03-13T20:51:52.410Z,2.60
2023-03-13T20:54:28.012Z,2.58
2023-03-13T20:56:59.835Z,2.48
2023-03-13T20:59:29.443Z,2.39
2023-03-13T21:02:02.886Z,2.32
2023-03-13T21:04:32.490Z,2.32
2023-03-13T21:07:13.334Z,2.32
2023-03-13T21:09:44.603Z,2.24
2023-03-13T21:12:13.746Z,2.29
2023-03-13T21:14:58.647Z,2.26
2023-03-13T21:17:27.916Z,2.15
2023-03-13T21:19:59.917Z,2.18
2023-03-13T21:22:30.657Z,2.21
2023-03-13T21:25:02.757Z,2.17
2023-03-13T21:27:32.739Z,2.13
2023-03-13T21:30:04.331Z,2.12
2023-03-13T21:32:33.987Z,2.28
2023-03-13T21:35:10.216Z,2.38
2023-03-13T21:37:41.083Z,2.44
2023-03-13T21:40:11.124Z,2.32
2023-03-13T21:42:39.748Z,2.32
2023-03-13T21:45:10.089Z,2.33
2023-03-13T21:47:38.887Z,2.34
2023-03-13T21:50:10.195Z,2.35
2023-03-13T21:52:42.419Z,2.38
2023-03-13T21:55:14.000Z,2.44
2023-03-13T21:57:42.656Z,2.50
2023-03-13T22:00:14.335Z,2.50
2023-03-13T22:02:44.418Z,2.39
2023-03-13T22:05:14.288Z,2.36
2023-03-13T22:07:45.637Z,2.31
2023-03-13T22:10:14.607Z,2.33
2023-03-13T22:12:43.409Z,2.28
2023-03-13T22:15:13.283Z,2.29
2023-03-13T22:17:42.113Z,2.29
2023-03-13T22:20:14.112Z,2.25
2023-03-13T22:22:48.425Z,2.24
2023-03-13T22:25:21.137Z,2.26
2023-03-13T22:27:50.059Z,2.26
2023-03-13T22:30:20.410Z,2.24
2023-03-13T22:32:49.151Z,2.25
2023-03-13T22:35:19.044Z,2.24
2023-03-13T22:37:49.593Z,2.16
2023-03-13T22:40:20.419Z,2.14
2023-03-13T22:42:49.523Z,2.13
2023-03-13T22:45:18.772Z,2.16
2023-03-13T22:48:18.438Z,2.18
2023-03-13T22:50:47.292Z,2.12
2023-03-13T22:53:20.804Z,2.19
2023-03-13T22:55:50.779Z,2.09
2023-03-13T22:58:19.951Z,1.99
2023-03-13T23:00:51.135Z,1.92
2023-03-13T23:03:20.200Z,2.00
2023-03-13T23:05:52.410Z,2.02
2023-03-13T23:08:36.593Z,2.06
2023-03-13T23:11:07.185Z,1.97
2023-03-13T23:13:35.921Z,1.86
2023-03-13T23:16:09.044Z,1.77
2023-03-13T23:18:38.821Z,1.64
2023-03-13T23:21:09.769Z,1.64
2023-03-13T23:23:40.270Z,1.73
2023-03-13T23:26:16.145Z,1.80
2023-03-13T23:28:44.581Z,1.85
2023-03-13T23:31:15.848Z,1.77
2023-03-13T23:33:45.704Z,1.87
2023-03-13T23:36:17.107Z,1.91
2023-03-13T23:38:51.300Z,1.85
2023-03-13T23:41:21.300Z,1.80
2023-03-13T23:43:49.973Z,1.80
2023-03-13T23:46:19.452Z,1.70
2023-03-13T23:48:48.366Z,1.56
2023-03-13T23:51:17.383Z,1.49
2023-03-13T23:53:47.274Z,1.45
2023-03-13T23:56:19.481Z,1.31
2023-03-13T23:58:56.144Z,1.34
